createdAt,value
2016-01-29T00:00:36.682Z,80.2
2016-01-29T00:01:36.623Z,82
2016-01-29T00:02:36.595Z,81.7
2016-01-29T00:03:36.535Z,81.7
2016-01-29T00:04:36.443Z,80.3
2016-01-29T00:05:36.388Z,78.9
2016-01-29T00:06:36.360Z,80.4
2016-01-29T00:07:36.268Z,80.6
2016-01-29T00:08:36.224Z,80.9
2016-01-29T00:09:36.164Z,82.6
2016-01-29T00:10:36.104Z,82.4
2016-01-29T00:11:35.967Z,81.1
2016-01-29T00:12:35.998Z,80.3
2016-01-29T00:13:35.938Z,80.6
2016-01-29T00:14:35.878Z,80.3
2016-01-29T00:15:35.817Z,82.1
2016-01-29T00:16:35.759Z,81.8
2016-01-29T00:17:35.933Z,80.9
2016-01-29T00:18:35.655Z,78.3
2016-01-29T00:19:35.596Z,79.9
2016-01-29T00:20:35.536Z,82
2016-01-29T00:21:35.477Z,80.8
2016-01-29T00:22:35.416Z,80.9
2016-01-29T00:23:35.358Z,81
2016-01-29T00:24:35.313Z,82.3
2016-01-29T00:25:35.254Z,81.5
2016-01-29T00:26:35.181Z,82.1
2016-01-29T00:27:35.152Z,79
2016-01-29T00:28:35.076Z,80.8
2016-01-29T00:29:35.018Z,79.4
2016-01-29T00:30:34.803Z,79.2
2016-01-29T00:31:34.903Z,78.7
2016-01-29T00:32:34.702Z,80.2
2016-01-29T00:33:35.033Z,81.2
2016-01-29T00:34:34.724Z,82.6
2016-01-29T00:35:34.903Z,83.8
2016-01-29T00:36:34.624Z,81.5
2016-01-29T00:37:34.551Z,83.5
2016-01-29T00:38:34.507Z,85.3
2016-01-29T00:39:34.434Z,85.3
2016-01-29T00:40:34.406Z,85.1
2016-01-29T00:41:34.330Z,84
2016-01-29T00:42:34.286Z,81.9
2016-01-29T00:43:34.274Z,80.8
2016-01-29T00:44:34.151Z,78.9
2016-01-29T00:45:34.106Z,77.7
2016-01-29T00:46:34.048Z,77.7
2016-01-29T00:47:33.988Z,77.7
2016-01-29T00:48:33.944Z,76.9
2016-01-29T00:49:33.884Z,80.2
2016-01-29T00:50:33.825Z,80.1
2016-01-29T00:51:33.768Z,81.2
2016-01-29T00:52:33.707Z,81.7
2016-01-29T00:53:33.648Z,81.3
2016-01-29T00:54:33.588Z,78.8
2016-01-29T00:55:33.528Z,79.9
2016-01-29T00:56:33.468Z,79.1
2016-01-29T00:57:33.469Z,78.2
2016-01-29T00:58:33.394Z,76.6
2016-01-29T00:59:33.320Z,77
2016-01-29T01:00:33.244Z,77.5
2016-01-29T01:01:33.184Z,76.8
2016-01-29T01:02:33.155Z,77.7
2016-01-29T01:03:33.081Z,78.3
2016-01-29T01:04:33.021Z,78.5
2016-01-29T01:05:32.961Z,80.5
2016-01-29T01:06:33.136Z,79.6
2016-01-29T01:07:32.858Z,77.5
2016-01-29T01:08:32.783Z,77.4
2016-01-29T01:09:32.723Z,77.8
2016-01-29T01:10:32.679Z,77.8
2016-01-29T01:11:32.668Z,77.6
2016-01-29T01:12:32.545Z,78
2016-01-29T01:13:32.501Z,79.6
2016-01-29T01:14:32.442Z,79.2
2016-01-29T01:15:32.400Z,80.7
2016-01-29T01:16:32.558Z,81.1
2016-01-29T01:17:32.264Z,80.2
2016-01-29T01:18:32.220Z,80.8
2016-01-29T01:19:32.161Z,81.7
2016-01-29T01:20:32.100Z,82.6
2016-01-29T01:21:32.042Z,81.8
2016-01-29T01:22:31.997Z,80.2
2016-01-29T01:23:31.923Z,78.9
2016-01-29T01:24:31.863Z,79.1
2016-01-29T01:25:31.819Z,80
2016-01-29T01:26:31.791Z,79
2016-01-29T01:27:31.700Z,77.8
2016-01-29T01:28:31.640Z,78.7
2016-01-29T01:29:31.596Z,78.2
2016-01-29T01:30:31.537Z,76.1
2016-01-29T01:31:31.714Z,76.7
2016-01-29T01:32:31.419Z,76
2016-01-29T01:33:31.358Z,76.9
2016-01-29T01:34:31.299Z,77.1
2016-01-29T01:35:31.255Z,77.7
2016-01-29T01:36:31.180Z,77.7
2016-01-29T01:37:31.151Z,78.7
2016-01-29T01:38:31.075Z,80
2016-01-29T01:39:31.016Z,78.8
2016-01-29T01:40:30.956Z,78.1
2016-01-29T01:41:30.898Z,77.8
2016-01-29T01:42:30.853Z,78.3
2016-01-29T01:43:30.793Z,79.2
2016-01-29T01:44:30.735Z,77.7
2016-01-29T01:45:30.910Z,76.5
2016-01-29T01:46:30.616Z,78
2016-01-29T01:47:30.790Z,80.1
2016-01-29T01:48:30.514Z,79.3
2016-01-29T01:49:30.439Z,79.3
2016-01-29T01:50:30.394Z,78.8
2016-01-29T01:51:30.569Z,79.4
2016-01-29T01:52:30.275Z,81.1
2016-01-29T01:53:30.231Z,81.3
2016-01-29T01:54:30.187Z,78.6
2016-01-29T01:55:30.112Z,79.4
2016-01-29T01:56:30.052Z,79.6
2016-01-29T01:57:30.009Z,80.7
2016-01-29T01:58:29.965Z,80.6
2016-01-29T01:59:30.124Z,78.4
2016-01-29T02:00:29.830Z,75.7
2016-01-29T02:01:29.771Z,77.9
2016-01-29T02:02:29.711Z,75.7
2016-01-29T02:03:29.514Z,74.4
2016-01-29T02:04:29.612Z,73.8
2016-01-29T02:05:29.553Z,73.2
2016-01-29T02:06:29.492Z,72.7
2016-01-29T02:07:29.433Z,72.9
2016-01-29T02:08:29.373Z,73.2
2016-01-29T02:09:29.548Z,74
2016-01-29T02:10:29.257Z,74.4
2016-01-29T02:11:29.197Z,74.1
2016-01-29T02:12:29.154Z,75.1
2016-01-29T02:13:29.125Z,74.5
2016-01-29T02:14:29.035Z,74.4
2016-01-29T02:15:29.208Z,75.1
2016-01-29T02:16:28.931Z,75.7
2016-01-29T02:17:29.089Z,76.5
2016-01-29T02:18:28.812Z,76
2016-01-29T02:19:28.753Z,75.5
2016-01-29T02:20:28.708Z,76.3
2016-01-29T02:21:28.633Z,76
2016-01-29T02:22:28.573Z,75.1
2016-01-29T02:23:28.529Z,75.8
2016-01-29T02:24:28.704Z,77.1
2016-01-29T02:25:28.410Z,77.8
2016-01-29T02:26:28.367Z,79.4
2016-01-29T02:27:28.291Z,80.3
2016-01-29T02:28:28.247Z,80.8
2016-01-29T02:29:28.204Z,81.2
2016-01-29T02:30:28.130Z,81.2
2016-01-29T02:31:28.071Z,81.8
2016-01-29T02:32:28.011Z,83.4
2016-01-29T02:33:27.966Z,84.3
2016-01-29T02:34:27.893Z,84.6
2016-01-29T02:35:28.067Z,84.2
2016-01-29T02:36:27.790Z,84.6
2016-01-29T02:37:27.729Z,86.1
2016-01-29T02:38:27.670Z,84.8
2016-01-29T02:39:27.610Z,84.2
2016-01-29T02:40:27.566Z,83
2016-01-29T02:41:27.507Z,83.1
2016-01-29T02:42:27.448Z,81.8
2016-01-29T02:43:27.372Z,81
2016-01-29T02:44:27.328Z,80.3
2016-01-29T02:45:27.269Z,79.5
2016-01-29T02:46:27.209Z,82.2
2016-01-29T02:47:27.150Z,82.2
2016-01-29T02:48:27.105Z,81.6
2016-01-29T02:49:27.046Z,80
2016-01-29T02:50:26.831Z,81
2016-01-29T02:51:26.928Z,79.9
2016-01-29T02:52:26.883Z,80.2
2016-01-29T02:53:26.808Z,79.2
2016-01-29T02:54:26.765Z,80.8
2016-01-29T02:55:26.704Z,80.2
2016-01-29T02:56:26.708Z,80.5
2016-01-29T02:57:26.586Z,80.3
2016-01-29T02:58:26.762Z,80.3
2016-01-29T02:59:26.467Z,79.2
2016-01-29T03:00:26.423Z,80.2
2016-01-29T03:01:26.364Z,80.4
2016-01-29T03:02:26.292Z,78.1
2016-01-29T03:03:26.263Z,78.7
2016-01-29T03:04:26.205Z,78.8
2016-01-29T03:05:26.144Z,78
2016-01-29T03:06:26.070Z,79.8
2016-01-29T03:07:26.026Z,79.2
2016-01-29T03:08:25.982Z,80.2
2016-01-29T03:09:26.141Z,82.1
2016-01-29T03:10:25.910Z,82.4
2016-01-29T03:11:25.852Z,82.4
2016-01-29T03:12:25.744Z,83.1
2016-01-29T03:13:25.686Z,82.9
2016-01-29T03:14:25.628Z,81.1
2016-01-29T03:15:25.568Z,81.1
2016-01-29T03:16:25.524Z,81.4
2016-01-29T03:17:25.464Z,80.4
2016-01-29T03:18:25.406Z,81
2016-01-29T03:19:25.346Z,81.9
2016-01-29T03:20:25.286Z,83.6
2016-01-29T03:21:25.226Z,82.4
2016-01-29T03:22:25.419Z,82.8
2016-01-29T03:23:25.125Z,85.4
2016-01-29T03:24:25.111Z,83.6
2016-01-29T03:25:25.083Z,84.1
2016-01-29T03:26:24.992Z,86.7
2016-01-29T03:27:24.916Z,87.7
2016-01-29T03:28:24.832Z,88.3
2016-01-29T03:29:24.773Z,88.5
2016-01-29T03:30:24.728Z,87
2016-01-29T03:31:24.668Z,86.9
2016-01-29T03:32:24.609Z,85.8
2016-01-29T03:33:24.549Z,85.1
2016-01-29T03:34:24.537Z,85.3
2016-01-29T03:35:23.695Z,83.6
2016-01-29T03:36:24.386Z,82.3
2016-01-29T03:37:24.343Z,80.9
2016-01-29T03:38:24.268Z,80.3
2016-01-29T03:39:24.209Z,81
2016-01-29T03:40:24.149Z,81.3
2016-01-29T03:41:24.105Z,80.7
2016-01-29T03:42:24.062Z,81
2016-01-29T03:43:23.986Z,81.1
2016-01-29T03:44:23.927Z,83.4
2016-01-29T03:45:23.914Z,82.3
2016-01-29T03:46:23.824Z,80.2
2016-01-29T03:47:23.982Z,78.3
2016-01-29T03:48:23.707Z,78.4
2016-01-29T03:49:23.646Z,78.8
2016-01-29T03:50:23.821Z,78
2016-01-29T03:51:23.527Z,76.7
2016-01-29T03:52:23.468Z,76.1
2016-01-29T03:53:23.414Z,77.2
2016-01-29T03:54:23.353Z,75.5
2016-01-29T03:55:23.310Z,74.8
2016-01-29T03:56:23.267Z,76.5
2016-01-29T03:57:23.175Z,76.5
2016-01-29T03:58:23.148Z,75.5
2016-01-29T03:59:23.071Z,75.9
2016-01-29T04:00:23.043Z,77.1
2016-01-29T04:01:22.955Z,76.7
2016-01-29T04:02:22.895Z,77.1
2016-01-29T04:03:22.852Z,77.5
2016-01-29T04:04:22.792Z,76
2016-01-29T04:05:22.733Z,75.1
2016-01-29T04:06:22.673Z,76.4
2016-01-29T04:07:22.613Z,76.2
2016-01-29T04:08:22.569Z,77.7
2016-01-29T04:09:22.510Z,76.5
2016-01-29T04:10:22.450Z,78.1
2016-01-29T04:11:22.391Z,78
2016-01-29T04:12:22.596Z,77.7
2016-01-29T04:13:22.274Z,76.3
2016-01-29T04:14:22.229Z,77.9
2016-01-29T04:15:22.169Z,78.1
2016-01-29T04:16:22.124Z,78.6
2016-01-29T04:17:22.049Z,79.7
2016-01-29T04:18:22.006Z,80.4
2016-01-29T04:19:21.930Z,80
2016-01-29T04:20:21.886Z,79.2
2016-01-29T04:21:21.828Z,79.9
2016-01-29T04:22:21.767Z,78.5
2016-01-29T04:23:21.723Z,79.2
2016-01-29T04:24:21.664Z,78.8
2016-01-29T04:25:21.449Z,79.5
2016-01-29T04:26:21.545Z,80.5
2016-01-29T04:27:21.485Z,81.4
2016-01-29T04:28:21.430Z,81.2
2016-01-29T04:29:21.605Z,82
2016-01-29T04:30:21.373Z,81.6
2016-01-29T04:31:21.267Z,82.5
2016-01-29T04:32:21.192Z,82.7
2016-01-29T04:33:21.132Z,81.1
2016-01-29T04:34:21.072Z,80.6
2016-01-29T04:35:21.029Z,79.5
2016-01-29T04:36:20.968Z,79.4
2016-01-29T04:37:20.910Z,80.3
2016-01-29T04:38:20.866Z,80.8
2016-01-29T04:39:20.790Z,80.2
2016-01-29T04:40:20.730Z,78.8
2016-01-29T04:41:20.685Z,79.9
2016-01-29T04:42:20.627Z,80.4
2016-01-29T04:43:20.552Z,81.5
2016-01-29T04:44:20.507Z,81.4
2016-01-29T04:45:20.464Z,81.6
2016-01-29T04:46:20.389Z,81
2016-01-29T04:47:20.329Z,81.4
2016-01-29T04:48:20.285Z,80.3
2016-01-29T04:49:20.241Z,81.6
2016-01-29T04:50:20.166Z,81.8
2016-01-29T04:51:20.105Z,82
2016-01-29T04:52:20.046Z,81.8
2016-01-29T04:53:19.986Z,81.8
2016-01-29T04:54:19.927Z,79.7
2016-01-29T04:55:19.897Z,80.8
2016-01-29T04:56:19.822Z,81.8
2016-01-29T04:57:19.747Z,82.3
2016-01-29T04:58:19.702Z,82.3
2016-01-29T04:59:19.649Z,82.5
2016-01-29T05:00:19.574Z,82.5
2016-01-29T05:01:19.576Z,82.7
2016-01-29T05:02:19.454Z,82.4
2016-01-29T05:03:19.409Z,81.8
2016-01-29T05:04:19.367Z,82.2
2016-01-29T05:05:19.322Z,80.7
2016-01-29T05:06:19.262Z,81.6
2016-01-29T05:07:19.172Z,80.8
2016-01-29T05:08:19.112Z,79.5
2016-01-29T05:09:19.068Z,79
2016-01-29T05:10:19.008Z,79.2
2016-01-29T05:11:18.949Z,77.2
2016-01-29T05:12:18.890Z,77.2
2016-01-29T05:13:18.829Z,76.7
2016-01-29T05:14:18.771Z,76.5
2016-01-29T05:15:18.728Z,76.2
2016-01-29T05:16:18.668Z,76.2
2016-01-29T05:17:18.623Z,76.7
2016-01-29T05:18:18.548Z,76.3
2016-01-29T05:19:18.506Z,76.9
2016-01-29T05:20:18.430Z,77.6
2016-01-29T05:21:18.386Z,78
2016-01-29T05:22:18.342Z,76.7
2016-01-29T05:23:18.266Z,76.2
2016-01-29T05:24:18.209Z,76.8
2016-01-29T05:25:18.148Z,77.8
2016-01-29T05:26:18.089Z,77.6
2016-01-29T05:27:18.028Z,78
2016-01-29T05:28:17.986Z,78.7
2016-01-29T05:29:18.223Z,79.1
2016-01-29T05:30:17.851Z,79.6
2016-01-29T05:31:17.800Z,78.6
2016-01-29T05:32:17.740Z,79.1
2016-01-29T05:33:17.681Z,77.5
2016-01-29T05:34:17.636Z,77.6
2016-01-29T05:35:17.608Z,77.5
2016-01-29T05:36:17.518Z,76.8
2016-01-29T05:37:17.458Z,78.1
2016-01-29T05:38:17.414Z,80.1
2016-01-29T05:39:17.369Z,79.3
2016-01-29T05:40:17.501Z,77.9
2016-01-29T05:41:17.219Z,76.5
2016-01-29T05:42:17.394Z,77.4
2016-01-29T05:43:17.099Z,76.4
2016-01-29T05:44:17.043Z,75.6
2016-01-29T05:45:16.998Z,75.1
2016-01-29T05:46:17.031Z,75.3
2016-01-29T05:47:17.128Z,74.8
2016-01-29T05:48:16.819Z,73.8
2016-01-29T05:49:16.993Z,73.7
2016-01-29T05:50:16.715Z,73.6
2016-01-29T05:51:16.937Z,73.7
2016-01-29T05:52:16.613Z,73.6
2016-01-29T05:53:16.600Z,73.4
2016-01-29T05:54:16.477Z,73.2
2016-01-29T05:55:16.433Z,72.6
2016-01-29T05:56:16.375Z,73.3
2016-01-29T05:57:16.301Z,73.4
2016-01-29T05:58:16.241Z,72.6
2016-01-29T05:59:16.196Z,72.9
2016-01-29T06:00:16.372Z,72.7
2016-01-29T06:01:16.078Z,72.3
2016-01-29T06:02:16.020Z,71.9
2016-01-29T06:03:15.967Z,73
2016-01-29T06:04:15.906Z,74.1
2016-01-29T06:05:15.847Z,75.7
2016-01-29T06:06:15.822Z,73.8
2016-01-29T06:07:15.731Z,74.4
2016-01-29T06:08:15.688Z,76
2016-01-29T06:09:15.627Z,73.5
2016-01-29T06:10:15.568Z,74.3
2016-01-29T06:11:15.508Z,72.8
2016-01-29T06:12:15.451Z,73.8
2016-01-29T06:13:15.407Z,76.2
2016-01-29T06:14:15.332Z,73.8
2016-01-29T06:15:15.288Z,74.3
2016-01-29T06:16:15.228Z,74.4
2016-01-29T06:17:15.168Z,73.9
2016-01-29T06:18:15.108Z,74.7
2016-01-29T06:19:15.065Z,73
2016-01-29T06:20:15.004Z,74.9
2016-01-29T06:21:14.945Z,75
2016-01-29T06:22:14.889Z,76.6
2016-01-29T06:23:14.831Z,76.4
2016-01-29T06:24:14.770Z,74.7
2016-01-29T06:25:14.725Z,76
2016-01-29T06:26:14.667Z,75.8
2016-01-29T06:27:14.607Z,75.3
2016-01-29T06:28:14.548Z,73.8
2016-01-29T06:29:14.518Z,74.2
2016-01-29T06:30:14.447Z,73.1
2016-01-29T06:31:14.372Z,73.8
2016-01-29T06:32:14.315Z,75
2016-01-29T06:33:14.490Z,76.3
2016-01-29T06:34:14.212Z,77.2
2016-01-29T06:35:14.155Z,77.8
2016-01-29T06:36:13.345Z,77.8
2016-01-29T06:37:13.285Z,78.1
2016-01-29T06:38:13.976Z,75.7
2016-01-29T06:39:13.917Z,77.4
2016-01-29T06:40:13.857Z,75.8
2016-01-29T06:41:13.812Z,74
2016-01-29T06:42:13.754Z,75.1
2016-01-29T06:43:13.694Z,74.1
2016-01-29T06:44:13.635Z,73.5
2016-01-29T06:45:13.574Z,70.4
2016-01-29T06:46:13.515Z,71.8
2016-01-29T06:47:13.472Z,70.9
2016-01-29T06:48:13.396Z,70.5
2016-01-29T06:49:13.352Z,70.2
2016-01-29T06:50:13.292Z,71.8
2016-01-29T06:51:13.236Z,70.1
2016-01-29T06:52:13.191Z,70.2
2016-01-29T06:53:13.116Z,70.1
2016-01-29T06:54:13.056Z,70.1
2016-01-29T06:55:13.012Z,72.6
2016-01-29T06:56:12.953Z,73.3
2016-01-29T06:57:12.892Z,70.8
2016-01-29T06:58:12.943Z,72.3
2016-01-29T06:59:12.790Z,71.8
2016-01-29T07:00:12.730Z,71.4
2016-01-29T07:01:12.670Z,71.6
2016-01-29T07:02:12.627Z,72
2016-01-29T07:03:12.553Z,72.1
2016-01-29T07:04:12.492Z,72.6
2016-01-29T07:05:12.448Z,74.5
2016-01-29T07:06:12.420Z,75.1
2016-01-29T07:07:12.314Z,74.6
2016-01-29T07:08:12.284Z,75.1
2016-01-29T07:09:12.226Z,74.2
2016-01-29T07:10:12.150Z,72.7
2016-01-29T07:11:12.106Z,73
2016-01-29T07:12:12.046Z,72.8
2016-01-29T07:13:11.986Z,72.1
2016-01-29T07:14:11.927Z,70.9
2016-01-29T07:15:12.103Z,70
2016-01-29T07:16:11.808Z,70.3
2016-01-29T07:17:11.764Z,70
2016-01-29T07:18:11.704Z,69.8
2016-01-29T07:19:11.667Z,69.7
2016-01-29T07:20:11.591Z,71.5
2016-01-29T07:21:11.531Z,72.2
2016-01-29T07:22:11.488Z,71.2
2016-01-29T07:23:11.413Z,69.5
2016-01-29T07:24:11.369Z,69.9
2016-01-29T07:25:11.309Z,69.3
2016-01-29T07:26:11.250Z,69.5
2016-01-29T07:27:11.191Z,69.5
2016-01-29T07:28:11.130Z,68.6
2016-01-29T07:29:11.087Z,69.1
2016-01-29T07:30:11.027Z,68.9
2016-01-29T07:31:10.967Z,70
2016-01-29T07:32:10.923Z,69.6
2016-01-29T07:33:10.847Z,67.8
2016-01-29T07:34:10.797Z,67.9
2016-01-29T07:35:10.802Z,67.3
2016-01-29T07:36:10.680Z,66.8
2016-01-29T07:37:10.636Z,65.2
2016-01-29T07:38:10.560Z,64
2016-01-29T07:39:10.516Z,63.2
2016-01-29T07:40:10.455Z,63.5
2016-01-29T07:41:10.396Z,62.1
2016-01-29T07:42:10.355Z,60.7
2016-01-29T07:43:10.311Z,60.4
2016-01-29T07:44:10.236Z,62.2
2016-01-29T07:45:10.175Z,63.2
2016-01-29T07:46:10.117Z,63.6
2016-01-29T07:47:10.072Z,62.9
2016-01-29T07:48:10.003Z,63.6
2016-01-29T07:49:09.989Z,65.2
2016-01-29T07:50:09.899Z,66.3
2016-01-29T07:51:09.839Z,67.2
2016-01-29T07:52:09.795Z,67.7
2016-01-29T07:53:09.735Z,68.3
2016-01-29T07:54:09.676Z,69
2016-01-29T07:55:09.601Z,69.1
2016-01-29T07:56:09.791Z,69.4
2016-01-29T07:57:09.560Z,69.4
2016-01-29T07:58:09.454Z,70.2
2016-01-29T07:59:09.394Z,71
2016-01-29T08:00:09.350Z,70.4
2016-01-29T08:01:09.273Z,70.7
2016-01-29T08:02:09.215Z,69.1
2016-01-29T08:03:09.171Z,65.5
2016-01-29T08:04:09.110Z,62.7
2016-01-29T08:05:09.050Z,61.2
2016-01-29T08:06:09.007Z,58.2
2016-01-29T08:07:08.979Z,60.5
2016-01-29T08:08:08.888Z,61.9
2016-01-29T08:09:08.827Z,63.4
2016-01-29T08:10:08.787Z,63.2
2016-01-29T08:11:08.712Z,65.2
2016-01-29T08:12:08.667Z,66.5
2016-01-29T08:13:08.608Z,65.9
2016-01-29T08:14:08.552Z,66.5
2016-01-29T08:15:08.524Z,66.6
2016-01-29T08:16:08.432Z,67.2
2016-01-29T08:17:08.388Z,66.9
2016-01-29T08:18:08.313Z,66.3
2016-01-29T08:19:08.270Z,65.4
2016-01-29T08:20:08.210Z,65.8
2016-01-29T08:21:08.150Z,65.8
2016-01-29T08:22:08.095Z,65.3
2016-01-29T08:23:08.066Z,66.3
2016-01-29T08:24:08.022Z,65.2
2016-01-29T08:25:07.930Z,66.3
2016-01-29T08:26:07.904Z,65
2016-01-29T08:27:07.828Z,65.7
2016-01-29T08:28:07.768Z,66
2016-01-29T08:29:07.739Z,65.8
2016-01-29T08:30:07.649Z,65.8
2016-01-29T08:31:07.590Z,67.4
2016-01-29T08:32:07.526Z,67.5
2016-01-29T08:33:07.482Z,67.2
2016-01-29T08:34:07.423Z,67.2
2016-01-29T08:35:07.364Z,67.1
2016-01-29T08:36:07.304Z,68
2016-01-29T08:37:07.259Z,68.3
2016-01-29T08:38:07.200Z,68.7
2016-01-29T08:39:07.142Z,68.3
2016-01-29T08:40:06.926Z,68.9
2016-01-29T08:41:07.022Z,67.2
2016-01-29T08:42:06.958Z,67
2016-01-29T08:43:06.918Z,65.9
2016-01-29T08:44:06.829Z,66.2
2016-01-29T08:45:06.771Z,66
2016-01-29T08:46:06.698Z,65.7
2016-01-29T08:47:06.628Z,66.6
2016-01-29T08:48:06.563Z,65
2016-01-29T08:49:06.498Z,65.8
2016-01-29T08:50:06.278Z,64.1
2016-01-29T08:51:06.387Z,65.2
2016-01-29T08:52:06.323Z,64.1
2016-01-29T08:53:06.261Z,65.5
2016-01-29T08:54:06.215Z,66.1
2016-01-29T08:55:06.138Z,66.4
2016-01-29T08:56:06.091Z,65.8
2016-01-29T08:57:06.029Z,66.3
2016-01-29T08:58:05.813Z,65.5
2016-01-29T08:59:05.910Z,66.2
2016-01-29T09:00:05.866Z,67
2016-01-29T09:01:05.806Z,67.2
2016-01-29T09:02:05.745Z,67.6
2016-01-29T09:03:05.692Z,66.5
2016-01-29T09:04:05.648Z,65.3
2016-01-29T09:05:05.587Z,65.8
2016-01-29T09:06:05.527Z,67
2016-01-29T09:07:05.530Z,66.1
2016-01-29T09:08:05.423Z,65.6
2016-01-29T09:09:05.363Z,65.3
2016-01-29T09:10:05.303Z,66.5
2016-01-29T09:11:05.244Z,64.3
2016-01-29T09:12:05.183Z,63.7
2016-01-29T09:13:05.142Z,65.3
2016-01-29T09:14:05.086Z,65.2
2016-01-29T09:15:05.043Z,64
2016-01-29T09:16:04.967Z,64.9
2016-01-29T09:17:04.909Z,63.7
2016-01-29T09:18:04.866Z,64.2
2016-01-29T09:19:04.790Z,64.5
2016-01-29T09:20:04.737Z,63.8
2016-01-29T09:21:04.707Z,64.4
2016-01-29T09:22:04.633Z,63.9
2016-01-29T09:23:04.588Z,64.5
2016-01-29T09:24:04.512Z,65.6
2016-01-29T09:25:04.468Z,64.8
2016-01-29T09:26:04.411Z,64.5
2016-01-29T09:27:04.351Z,64.2
2016-01-29T09:28:04.291Z,64.3
2016-01-29T09:29:04.247Z,65
2016-01-29T09:30:04.188Z,65.5
2016-01-29T09:31:04.129Z,65.2
2016-01-29T09:32:04.103Z,65.6
2016-01-29T09:33:03.996Z,65.8
2016-01-29T09:34:03.986Z,65.5
2016-01-29T09:35:03.895Z,66.5
2016-01-29T09:36:03.835Z,65.6
2016-01-29T09:37:03.775Z,66.1
2016-01-29T09:38:03.717Z,66.5
2016-01-29T09:39:03.672Z,65.7
2016-01-29T09:40:03.674Z,65.5
2016-01-29T09:41:03.568Z,65.8
2016-01-29T09:42:03.511Z,66.9
2016-01-29T09:43:03.468Z,67.4
2016-01-29T09:44:03.391Z,67.8
2016-01-29T09:45:03.348Z,67.3
2016-01-29T09:46:03.307Z,68.5
2016-01-29T09:47:03.215Z,68.6
2016-01-29T09:48:03.155Z,68.1
2016-01-29T09:49:03.112Z,68.2
2016-01-29T09:50:03.053Z,67.1
2016-01-29T09:51:03.009Z,66.7
2016-01-29T09:52:02.950Z,67.1
2016-01-29T09:53:02.889Z,65.5
2016-01-29T09:54:03.068Z,65.8
2016-01-29T09:55:02.773Z,64.5
2016-01-29T09:56:02.745Z,65.2
2016-01-29T09:57:02.669Z,64.2
2016-01-29T09:58:02.610Z,65.2
2016-01-29T09:59:02.551Z,64.1
2016-01-29T10:00:02.490Z,62.6
2016-01-29T10:01:02.447Z,62.3
2016-01-29T10:02:02.419Z,62.3
2016-01-29T10:03:02.318Z,61.6
2016-01-29T10:04:02.275Z,62.6
2016-01-29T10:05:02.215Z,62.7
2016-01-29T10:06:02.172Z,62.2
2016-01-29T10:07:02.112Z,62.2
2016-01-29T10:08:02.052Z,61.8
2016-01-29T10:09:02.023Z,61.9
2016-01-29T10:10:01.933Z,62.4
2016-01-29T10:11:01.888Z,61.4
2016-01-29T10:12:01.860Z,59.6
2016-01-29T10:13:01.784Z,60.5
2016-01-29T10:14:01.724Z,59.8
2016-01-29T10:15:01.681Z,61.6
2016-01-29T10:16:01.604Z,61.9
2016-01-29T10:17:01.562Z,62.5
2016-01-29T10:18:01.503Z,62.7
2016-01-29T10:19:01.444Z,61.6
2016-01-29T10:20:01.400Z,61.2
2016-01-29T10:21:01.340Z,62.2
2016-01-29T10:22:01.281Z,61.9
2016-01-29T10:23:01.269Z,61.3
2016-01-29T10:24:01.177Z,61.1
2016-01-29T10:25:01.117Z,60.6
2016-01-29T10:26:01.074Z,61.5
2016-01-29T10:27:01.045Z,60.6
2016-01-29T10:28:00.954Z,60.6
2016-01-29T10:29:00.909Z,61.5
2016-01-29T10:30:00.849Z,61
2016-01-29T10:31:00.790Z,61.6
2016-01-29T10:32:00.746Z,62
2016-01-29T10:33:00.688Z,61
2016-01-29T10:34:00.628Z,60.3
2016-01-29T10:35:00.569Z,61.2
2016-01-29T10:36:00.556Z,61.3
2016-01-29T10:37:00.485Z,61.5
2016-01-29T10:38:00.410Z,61.9
2016-01-29T10:39:00.397Z,61.8
2016-01-29T10:40:00.336Z,62
2016-01-29T10:41:00.246Z,61.8
2016-01-29T10:42:00.453Z,61.4
2016-01-29T10:43:00.142Z,60.5
2016-01-29T10:44:00.098Z,60.3
2016-01-29T10:45:00.023Z,60.6
2016-01-29T10:45:59.980Z,60.2
2016-01-29T10:46:59.920Z,59.5
2016-01-29T10:47:59.875Z,60.6
2016-01-29T10:48:59.816Z,59.3
2016-01-29T10:49:59.757Z,59.9
2016-01-29T10:50:59.713Z,58.6
2016-01-29T10:51:59.653Z,59.4
2016-01-29T10:52:59.611Z,58.8
2016-01-29T10:53:59.550Z,58.7
2016-01-29T10:54:59.522Z,57.9
2016-01-29T10:55:59.461Z,59.1
2016-01-29T10:56:59.386Z,59.5
2016-01-29T10:57:59.328Z,59.2
2016-01-29T10:58:59.283Z,59.6
2016-01-29T10:59:59.239Z,59
2016-01-29T11:00:59.179Z,59.5
2016-01-29T11:01:59.120Z,61
2016-01-29T11:02:59.061Z,59.8
2016-01-29T11:03:59.021Z,60.6
2016-01-29T11:04:58.961Z,59.4
2016-01-29T11:05:58.905Z,58.2
2016-01-29T11:06:58.846Z,57.1
2016-01-29T11:07:58.801Z,57.4
2016-01-29T11:08:58.757Z,57.9
2016-01-29T11:09:58.683Z,59
2016-01-29T11:10:58.624Z,58.2
2016-01-29T11:11:58.579Z,58.7
2016-01-29T11:12:58.550Z,59
2016-01-29T11:13:58.478Z,59.6
2016-01-29T11:14:58.418Z,59.1
2016-01-29T11:15:58.358Z,58.8
2016-01-29T11:16:58.299Z,60
2016-01-29T11:17:58.256Z,59.9
2016-01-29T11:18:58.195Z,59.2
2016-01-29T11:19:58.166Z,60.6
2016-01-29T11:20:58.091Z,59.8
2016-01-29T11:21:58.050Z,59.7
2016-01-29T11:22:57.990Z,59.5
2016-01-29T11:23:57.930Z,58.6
2016-01-29T11:24:57.870Z,58.8
2016-01-29T11:25:57.828Z,58.4
2016-01-29T11:26:57.767Z,56.8
2016-01-29T11:27:57.739Z,56.5
2016-01-29T11:28:57.664Z,58
2016-01-29T11:29:57.607Z,57.8
2016-01-29T11:30:57.547Z,57.1
2016-01-29T11:31:57.487Z,58.6
2016-01-29T11:32:57.475Z,59.5
2016-01-29T11:33:57.392Z,58.7
2016-01-29T11:34:57.332Z,59
2016-01-29T11:35:57.288Z,58.6
2016-01-29T11:36:57.229Z,59.6
2016-01-29T11:37:57.169Z,58.6
2016-01-29T11:38:57.125Z,58.5
2016-01-29T11:39:57.065Z,59.7
2016-01-29T11:40:57.006Z,60
2016-01-29T11:41:56.961Z,60.7
2016-01-29T11:42:56.902Z,60.6
2016-01-29T11:43:56.842Z,60.2
2016-01-29T11:44:56.798Z,60.7
2016-01-29T11:45:56.739Z,61
2016-01-29T11:46:56.711Z,61.6
2016-01-29T11:47:56.854Z,61.2
2016-01-29T11:48:56.575Z,60.3
2016-01-29T11:49:56.517Z,60.6
2016-01-29T11:50:56.456Z,60.2
2016-01-29T11:51:56.412Z,60.1
2016-01-29T11:52:56.354Z,61.5
2016-01-29T11:53:56.324Z,62.1
2016-01-29T11:54:56.266Z,61.8
2016-01-29T11:55:56.190Z,60.7
2016-01-29T11:56:56.131Z,61
2016-01-29T11:57:56.102Z,60.9
2016-01-29T11:58:56.026Z,61.2
2016-01-29T11:59:55.982Z,61.4
2016-01-29T12:00:55.910Z,61.3
2016-01-29T12:01:55.882Z,61.8
2016-01-29T12:02:55.853Z,60
2016-01-29T12:03:55.763Z,60.2
2016-01-29T12:04:55.689Z,60.2
2016-01-29T12:05:55.646Z,60.4
2016-01-29T12:06:55.592Z,60.7
2016-01-29T12:07:55.522Z,61.9
2016-01-29T12:08:55.493Z,61
2016-01-29T12:09:55.422Z,61
2016-01-29T12:10:55.379Z,61.4
2016-01-29T12:11:55.335Z,61.6
2016-01-29T12:12:55.260Z,61
2016-01-29T12:13:54.481Z,60.6
2016-01-29T12:14:55.156Z,61
2016-01-29T12:15:55.095Z,60.7
2016-01-29T12:16:55.084Z,60.5
2016-01-29T12:17:54.993Z,61
2016-01-29T12:18:54.936Z,61.6
2016-01-29T12:19:54.877Z,62
2016-01-29T12:20:54.833Z,62.4
2016-01-29T12:21:54.774Z,62.2
2016-01-29T12:22:54.713Z,61.3
2016-01-29T12:23:54.669Z,62.4
2016-01-29T12:24:54.625Z,62.6
2016-01-29T12:25:54.565Z,63.1
2016-01-29T12:26:54.490Z,64
2016-01-29T12:27:54.431Z,64.1
2016-01-29T12:28:54.387Z,64.7
2016-01-29T12:29:54.327Z,64.1
2016-01-29T12:30:54.282Z,63.3
2016-01-29T12:31:54.240Z,63.3
2016-01-29T12:32:54.196Z,63.6
2016-01-29T12:33:54.110Z,64
2016-01-29T12:34:54.065Z,64.3
2016-01-29T12:35:54.022Z,63.9
2016-01-29T12:36:53.962Z,63.9
2016-01-29T12:37:53.948Z,63.5
2016-01-29T12:38:53.859Z,64.3
2016-01-29T12:39:53.782Z,64
2016-01-29T12:40:53.755Z,63.8
2016-01-29T12:41:53.682Z,63.8
2016-01-29T12:42:53.622Z,63.8
2016-01-29T12:43:53.579Z,63.5
2016-01-29T12:44:53.519Z,63.6
2016-01-29T12:45:53.495Z,63.8
2016-01-29T12:46:53.420Z,64.4
2016-01-29T12:47:53.344Z,64.6
2016-01-29T12:48:53.300Z,64.7
2016-01-29T12:49:53.241Z,65.1
2016-01-29T12:50:53.213Z,65.1
2016-01-29T12:51:53.137Z,65.9
2016-01-29T12:52:53.077Z,65
2016-01-29T12:53:53.066Z,64.4
2016-01-29T12:54:52.984Z,64.5
2016-01-29T12:55:52.925Z,64.6
2016-01-29T12:56:52.896Z,64.2
2016-01-29T12:57:52.821Z,64.1
2016-01-29T12:58:52.754Z,64.2
2016-01-29T12:59:52.709Z,64
2016-01-29T13:00:52.884Z,64.3
2016-01-29T13:01:52.605Z,64.2
2016-01-29T13:02:52.562Z,64.3
2016-01-29T13:03:52.842Z,64.2
2016-01-29T13:04:52.423Z,63.9
2016-01-29T13:05:52.378Z,62.6
2016-01-29T13:06:52.334Z,62.7
2016-01-29T13:07:52.273Z,63.2
2016-01-29T13:08:52.230Z,63.4
2016-01-29T13:09:52.186Z,63.2
2016-01-29T13:10:52.110Z,64
2016-01-29T13:11:52.285Z,64.2
2016-01-29T13:12:51.258Z,64.1
2016-01-29T13:13:51.948Z,64.7
2016-01-29T13:14:51.966Z,64.7
2016-01-29T13:15:51.829Z,64.7
2016-01-29T13:16:52.005Z,65
2016-01-29T13:17:51.710Z,64.9
2016-01-29T13:18:51.685Z,64.9
2016-01-29T13:19:51.609Z,65.2
2016-01-29T13:20:51.566Z,65.3
2016-01-29T13:21:51.506Z,65.2
2016-01-29T13:22:51.447Z,65.1
2016-01-29T13:23:51.402Z,65.5